createdAt,value
2023-03-22T00:00:42.202Z,97.79
2023-03-22T00:01:42.208Z,98.00
2023-03-22T00:03:43.834Z,96.76
2023-03-22T00:04:43.780Z,96.86
2023-03-22T00:05:43.764Z,97.49
2023-03-22T00:06:43.731Z,97.17
2023-03-22T00:07:43.723Z,98.00
2023-03-22T00:08:43.714Z,98.52
2023-03-22T00:09:43.712Z,98.72
2023-03-22T00:10:43.692Z,98.62
2023-03-22T00:11:43.686Z,98.52
2023-03-22T00:12:43.672Z,98.21
2023-03-22T00:13:43.659Z,99.19
2023-03-22T00:14:43.662Z,99.24
2023-03-22T00:15:43.662Z,98.41
2023-03-22T00:16:43.627Z,96.97
2023-03-22T00:17:43.613Z,95.98
2023-03-22T00:18:43.606Z,94.37
2023-03-22T00:19:43.600Z,95.03
2023-03-22T00:20:43.579Z,95.50
2023-03-22T00:21:43.576Z,95.65
2023-03-22T00:22:43.564Z,95.44
2023-03-22T00:23:43.550Z,95.96
2023-03-22T00:24:43.557Z,96.37
2023-03-22T00:25:43.526Z,97.52
2023-03-22T00:26:43.516Z,97.20
2023-03-22T00:27:43.500Z,97.31
2023-03-22T00:28:43.516Z,96.73
2023-03-22T00:29:43.498Z,96.94
2023-03-22T00:30:43.474Z,96.89
2023-03-22T00:31:43.478Z,96.94
2023-03-22T00:32:43.460Z,97.66
2023-03-22T00:33:43.440Z,97.52
2023-03-22T00:34:43.444Z,97.31
2023-03-22T00:35:43.439Z,97.41
2023-03-22T00:36:43.459Z,97.52
2023-03-22T00:37:43.401Z,97.31
2023-03-22T00:38:44.471Z,97.41
2023-03-22T00:39:43.394Z,97.62
2023-03-22T00:40:43.374Z,97.10
2023-03-22T00:41:43.359Z,97.52
2023-03-22T00:42:43.348Z,98.65
2023-03-22T00:43:43.333Z,98.71
2023-03-22T00:44:43.342Z,99.43
2023-03-22T00:45:43.366Z,98.71
2023-03-22T00:46:43.317Z,98.92
2023-03-22T00:47:43.405Z,99.33
2023-03-22T00:48:43.299Z,98.50
2023-03-22T00:49:43.279Z,99.43
2023-03-22T00:50:43.263Z,98.82
2023-03-22T00:51:43.260Z,98.40
2023-03-22T00:52:43.250Z,99.23
2023-03-22T00:53:43.890Z,99.33
2023-03-22T00:54:43.228Z,98.19
2023-03-22T00:55:43.223Z,97.94
2023-03-22T00:56:43.197Z,98.19
2023-03-22T00:57:43.181Z,97.88
2023-03-22T00:58:43.176Z,99.33
2023-03-22T00:59:43.186Z,99.29
2023-03-22T01:00:43.184Z,98.40
2023-03-22T01:01:43.139Z,98.30
2023-03-22T01:02:43.131Z,97.99
2023-03-22T01:03:43.358Z,97.88
2023-03-22T01:04:43.132Z,97.47
2023-03-22T01:05:43.094Z,97.52
2023-03-22T01:06:43.084Z,96.48
2023-03-22T01:07:43.075Z,96.69
2023-03-22T01:08:43.075Z,95.65
2023-03-22T01:09:43.053Z,96.01
2023-03-22T01:10:43.059Z,96.11
2023-03-22T01:11:43.037Z,96.15
2023-03-22T01:12:43.025Z,95.74
2023-03-22T01:13:43.016Z,96.05
2023-03-22T01:14:43.005Z,96.42
2023-03-22T01:15:43.001Z,97.45
2023-03-22T01:16:43.023Z,97.39
2023-03-22T01:17:42.968Z,97.50
2023-03-22T01:18:42.965Z,97.39
2023-03-22T01:19:42.941Z,97.71
2023-03-22T01:20:42.959Z,97.50
2023-03-22T01:21:42.916Z,97.04
2023-03-22T01:22:42.914Z,97.29
2023-03-22T01:23:42.895Z,98.08
2023-03-22T01:24:42.889Z,98.39
2023-03-22T01:25:42.884Z,98.28
2023-03-22T01:26:42.865Z,99.43
2023-03-22T01:27:42.852Z,98.28
2023-03-22T01:28:42.842Z,98.18
2023-03-22T01:29:42.827Z,98.18
2023-03-22T01:30:43.118Z,97.97
2023-03-22T01:31:42.812Z,98.08
2023-03-22T01:32:42.808Z,98.02
2023-03-22T01:33:42.786Z,97.56
2023-03-22T01:34:42.778Z,97.19
2023-03-22T01:35:42.850Z,96.57
2023-03-22T01:36:42.770Z,97.39
2023-03-22T01:37:42.751Z,96.09
2023-03-22T01:38:42.736Z,95.99
2023-03-22T01:39:42.724Z,96.45
2023-03-22T01:40:42.968Z,96.24
2023-03-22T01:41:42.706Z,96.29
2023-03-22T01:42:42.710Z,96.76
2023-03-22T01:43:42.682Z,96.45
2023-03-22T01:44:42.681Z,96.45
2023-03-22T01:45:42.672Z,96.86
2023-03-22T01:46:42.666Z,97.49
2023-03-22T01:47:42.685Z,97.07
2023-03-22T01:48:42.652Z,97.17
2023-03-22T01:49:42.623Z,97.49
2023-03-22T01:50:42.668Z,97.49
2023-03-22T01:51:43.742Z,96.76
2023-03-22T01:52:42.612Z,97.59
2023-03-22T01:53:42.581Z,97.38
2023-03-22T01:54:42.574Z,97.17
2023-03-22T01:55:42.588Z,98.21
2023-03-22T01:56:42.553Z,99.46
2023-03-22T01:57:42.548Z,99.04
2023-03-22T01:58:42.531Z,98.42
2023-03-22T01:59:42.521Z,98.63
2023-03-22T02:00:42.527Z,98.52
2023-03-22T02:01:42.533Z,97.17
2023-03-22T02:02:42.541Z,98.42
2023-03-22T02:03:42.511Z,98.83
2023-03-22T02:04:42.472Z,98.63
2023-03-22T02:05:42.485Z,98.42
2023-03-22T02:06:42.452Z,98.07
2023-03-22T02:07:42.450Z,99.10
2023-03-22T02:08:42.429Z,99.52
2023-03-22T02:09:42.423Z,99.52
2023-03-22T02:10:42.422Z,99.00
2023-03-22T02:11:42.393Z,99.52
2023-03-22T02:12:42.388Z,99.52
2023-03-22T02:13:42.471Z,99.26
2023-03-22T02:14:42.372Z,99.21
2023-03-22T02:15:42.392Z,98.48
2023-03-22T02:16:42.348Z,98.38
2023-03-22T02:17:42.341Z,98.79
2023-03-22T02:18:42.331Z,97.96
2023-03-22T02:19:42.340Z,98.07
2023-03-22T02:20:42.319Z,97.86
2023-03-22T02:21:42.284Z,97.55
2023-03-22T02:22:42.305Z,97.86
2023-03-22T02:23:42.272Z,97.65
2023-03-22T02:24:43.978Z,97.96
2023-03-22T02:25:42.293Z,98.48
2023-03-22T02:26:42.285Z,98.22
2023-03-22T02:27:42.229Z,98.54
2023-03-22T02:28:42.220Z,98.85
2023-03-22T02:29:42.281Z,98.74
2023-03-22T02:30:42.229Z,97.75
2023-03-22T02:31:42.189Z,97.44
2023-03-22T02:32:43.368Z,97.50
2023-03-22T02:33:43.330Z,96.14
2023-03-22T02:34:43.315Z,94.94
2023-03-22T02:35:43.343Z,95.19
2023-03-22T02:36:43.279Z,95.61
2023-03-22T02:37:43.328Z,96.12
2023-03-22T02:38:43.271Z,96.64
2023-03-22T02:39:43.268Z,97.58
2023-03-22T02:40:43.271Z,96.91
2023-03-22T02:41:43.266Z,97.16
2023-03-22T02:42:43.243Z,97.58
2023-03-22T02:43:43.227Z,97.22
2023-03-22T02:44:43.203Z,97.43
2023-03-22T02:45:43.239Z,97.74
2023-03-22T02:46:43.213Z,98.47
2023-03-22T02:47:43.226Z,99.61
2023-03-22T02:48:43.158Z,99.46
2023-03-22T02:49:43.172Z,99.98
2023-03-22T02:50:43.142Z,99.99
2023-03-22T02:51:43.161Z,99.99
2023-03-22T02:52:43.158Z,99.99
2023-03-22T02:53:43.130Z,99.99
2023-03-22T02:54:44.656Z,99.99
2023-03-22T02:55:44.118Z,99.68
2023-03-22T02:56:43.100Z,99.52
2023-03-22T02:57:43.097Z,99.52
2023-03-22T02:58:43.075Z,98.38
2023-03-22T02:59:43.085Z,97.65
2023-03-22T03:00:43.216Z,95.87
2023-03-22T03:01:43.074Z,95.09
2023-03-22T03:02:43.038Z,95.19
2023-03-22T03:03:43.022Z,96.33
2023-03-22T03:04:43.026Z,95.81
2023-03-22T03:05:43.018Z,96.17
2023-03-22T03:06:42.988Z,96.37
2023-03-22T03:07:42.970Z,97.72
2023-03-22T03:08:42.983Z,97.52
2023-03-22T03:09:42.985Z,97.52
2023-03-22T03:10:42.967Z,97.10
2023-03-22T03:11:42.961Z,97.41
2023-03-22T03:12:42.928Z,97.58
2023-03-22T03:13:42.917Z,97.52
2023-03-22T03:14:42.913Z,96.89
2023-03-22T03:15:42.892Z,96.79
2023-03-22T03:16:42.918Z,96.89
2023-03-22T03:17:42.873Z,96.58
2023-03-22T03:18:42.878Z,97.00
2023-03-22T03:19:42.882Z,98.45
2023-03-22T03:20:42.886Z,99.55
2023-03-22T03:21:42.870Z,99.76
2023-03-22T03:22:42.817Z,99.76
2023-03-22T03:23:42.816Z,99.40
2023-03-22T03:24:42.815Z,99.34
2023-03-22T03:25:42.801Z,99.55
2023-03-22T03:26:42.787Z,99.55
2023-03-22T03:27:42.782Z,99.09
2023-03-22T03:28:42.763Z,99.34
2023-03-22T03:29:42.754Z,99.61
2023-03-22T03:30:42.741Z,99.71
2023-03-22T03:31:42.772Z,99.71
2023-03-22T03:32:42.721Z,99.61
2023-03-22T03:33:42.705Z,99.44
2023-03-22T03:34:42.735Z,99.55
2023-03-22T03:35:42.736Z,98.82
2023-03-22T03:36:42.712Z,98.26
2023-03-22T03:37:42.682Z,98.26
2023-03-22T03:38:42.658Z,98.20
2023-03-22T03:39:42.645Z,97.99
2023-03-22T03:40:42.655Z,98.24
2023-03-22T03:41:42.641Z,98.20
2023-03-22T03:42:42.654Z,97.89
2023-03-22T03:43:42.619Z,97.16
2023-03-22T03:44:42.622Z,97.47
2023-03-22T03:45:42.618Z,97.58
2023-03-22T03:46:42.593Z,97.37
2023-03-22T03:47:42.596Z,98.14
2023-03-22T03:48:42.600Z,98.24
2023-03-22T03:49:42.553Z,98.41
2023-03-22T03:50:42.589Z,97.99
2023-03-22T03:51:42.563Z,98.20
2023-03-22T03:52:42.540Z,98.93
2023-03-22T03:53:42.520Z,98.72
2023-03-22T03:54:43.498Z,99.03
2023-03-22T03:55:42.488Z,99.51
2023-03-22T03:56:42.489Z,99.09
2023-03-22T03:57:42.508Z,99.71
2023-03-22T03:58:42.467Z,99.77
2023-03-22T03:59:42.470Z,99.71
2023-03-22T04:00:42.436Z,99.66
2023-03-22T04:01:42.468Z,99.35
2023-03-22T04:02:42.434Z,99.25
2023-03-22T04:03:42.458Z,99.66
2023-03-22T04:04:42.531Z,99.46
2023-03-22T04:05:42.416Z,99.25
2023-03-22T04:06:42.407Z,99.56
2023-03-22T04:07:42.396Z,98.63
2023-03-22T04:08:42.390Z,98.32
2023-03-22T04:09:42.373Z,98.21
2023-03-22T04:10:42.364Z,98.21
2023-03-22T04:11:42.395Z,97.80
2023-03-22T04:12:42.356Z,97.43
2023-03-22T04:13:42.332Z,97.22
2023-03-22T04:14:42.316Z,96.95
2023-03-22T04:15:42.305Z,97.37
2023-03-22T04:16:42.318Z,97.37
2023-03-22T04:17:42.277Z,96.95
2023-03-22T04:18:42.280Z,97.37
2023-03-22T04:19:42.273Z,97.37
2023-03-22T04:20:42.274Z,97.27
2023-03-22T04:21:42.253Z,97.27
2023-03-22T04:22:42.273Z,97.68
2023-03-22T04:23:42.207Z,97.58
2023-03-22T04:24:42.210Z,97.83
2023-03-22T04:25:42.204Z,97.41
2023-03-22T04:26:42.189Z,97.27
2023-03-22T04:27:42.202Z,97.58
2023-03-22T04:28:42.174Z,97.58
2023-03-22T04:29:42.163Z,96.95
2023-03-22T04:30:42.679Z,97.20
2023-03-22T04:31:42.128Z,97.41
2023-03-22T04:32:42.147Z,97.00
2023-03-22T04:33:42.107Z,97.52
2023-03-22T04:34:42.097Z,97.41
2023-03-22T04:35:42.121Z,97.20
2023-03-22T04:36:42.087Z,96.06
2023-03-22T04:37:42.086Z,96.27
2023-03-22T04:38:42.089Z,96.17
2023-03-22T04:39:42.079Z,96.89
2023-03-22T04:40:42.454Z,96.79
2023-03-22T04:41:42.045Z,96.58
2023-03-22T04:42:42.044Z,97.10
2023-03-22T04:43:42.028Z,97.83
2023-03-22T04:44:42.018Z,97.52
2023-03-22T04:45:42.090Z,97.47
2023-03-22T04:46:42.021Z,96.95
2023-03-22T04:47:42.126Z,97.37
2023-03-22T04:48:42.005Z,97.58
2023-03-22T04:49:41.961Z,98.20
2023-03-22T04:50:42.177Z,98.10
2023-03-22T04:51:41.947Z,97.64
2023-03-22T04:52:41.950Z,97.68
2023-03-22T04:53:41.900Z,97.52
2023-03-22T04:54:41.914Z,97.58
2023-03-22T04:55:41.899Z,97.47
2023-03-22T04:56:41.887Z,97.68
2023-03-22T04:57:41.894Z,97.47
2023-03-22T04:58:41.883Z,97.62
2023-03-22T04:59:41.847Z,97.58
2023-03-22T05:00:42.067Z,97.58
2023-03-22T05:01:41.862Z,97.99
2023-03-22T05:02:41.922Z,98.20
2023-03-22T05:03:41.826Z,98.41
2023-03-22T05:04:41.816Z,98.10
2023-03-22T05:05:41.791Z,97.47
2023-03-22T05:06:41.795Z,97.68
2023-03-22T05:07:41.785Z,97.68
2023-03-22T05:08:41.761Z,97.68
2023-03-22T05:09:41.762Z,97.64
2023-03-22T05:10:42.176Z,97.64
2023-03-22T05:11:41.742Z,97.16
2023-03-22T05:12:41.738Z,97.16
2023-03-22T05:13:42.716Z,97.27
2023-03-22T05:14:41.759Z,97.22
2023-03-22T05:15:41.772Z,97.64
2023-03-22T05:16:41.692Z,96.60
2023-03-22T05:17:41.700Z,97.43
2023-03-22T05:18:41.667Z,97.58
2023-03-22T05:19:41.650Z,97.43
2023-03-22T05:20:41.951Z,96.64
2023-03-22T05:21:41.640Z,96.54
2023-03-22T05:22:41.638Z,97.06
2023-03-22T05:23:41.628Z,97.53
2023-03-22T05:24:41.616Z,97.47
2023-03-22T05:25:41.856Z,97.22
2023-03-22T05:26:41.585Z,97.22
2023-03-22T05:27:41.594Z,97.12
2023-03-22T05:28:41.593Z,97.33
2023-03-22T05:29:41.557Z,98.36
2023-03-22T05:30:41.778Z,98.26
2023-03-22T05:31:41.585Z,98.26
2023-03-22T05:32:41.535Z,97.53
2023-03-22T05:33:41.526Z,97.85
2023-03-22T05:34:41.503Z,97.33
2023-03-22T05:35:41.614Z,97.22
2023-03-22T05:36:41.496Z,97.27
2023-03-22T05:37:41.479Z,96.85
2023-03-22T05:38:41.447Z,96.12
2023-03-22T05:39:41.439Z,96.02
2023-03-22T05:40:41.800Z,96.23
2023-03-22T05:41:41.465Z,96.33
2023-03-22T05:42:41.438Z,96.23
2023-03-22T05:43:41.402Z,96.44
2023-03-22T05:44:41.430Z,95.50
2023-03-22T05:45:41.395Z,95.19
2023-03-22T05:46:41.455Z,95.61
2023-03-22T05:47:41.475Z,95.19
2023-03-22T05:48:41.394Z,96.39
2023-03-22T05:49:41.380Z,96.19
2023-03-22T05:50:41.512Z,96.33
2023-03-22T05:51:41.341Z,96.64
2023-03-22T05:52:41.361Z,96.19
2023-03-22T05:53:41.331Z,95.87
2023-03-22T05:54:41.296Z,96.19
2023-03-22T05:55:41.289Z,96.19
2023-03-22T05:56:41.295Z,95.87
2023-03-22T05:57:41.268Z,96.29
2023-03-22T05:58:41.309Z,96.29
2023-03-22T05:59:41.289Z,96.14
2023-03-22T06:00:41.550Z,96.03
2023-03-22T06:01:41.277Z,96.66
2023-03-22T06:02:41.303Z,96.66
2023-03-22T06:03:41.249Z,96.45
2023-03-22T06:04:41.220Z,96.45
2023-03-22T06:05:41.196Z,96.20
2023-03-22T06:06:41.229Z,96.51
2023-03-22T06:07:41.173Z,96.61
2023-03-22T06:08:41.191Z,96.41
2023-03-22T06:09:41.204Z,96.26
2023-03-22T06:10:41.504Z,96.51
2023-03-22T06:11:41.155Z,96.47
2023-03-22T06:12:41.171Z,96.72
2023-03-22T06:13:41.147Z,97.29
2023-03-22T06:14:41.119Z,96.88
2023-03-22T06:15:41.130Z,96.67
2023-03-22T06:16:41.172Z,95.84
2023-03-22T06:17:41.133Z,96.05
2023-03-22T06:18:41.111Z,96.67
2023-03-22T06:19:41.907Z,96.36
2023-03-22T06:20:41.476Z,96.67
2023-03-22T06:21:41.164Z,96.47
2023-03-22T06:22:41.178Z,96.57
2023-03-22T06:23:41.105Z,96.57
2023-03-22T06:24:41.063Z,95.95
2023-03-22T06:25:41.170Z,95.84
2023-03-22T06:26:41.103Z,96.36
2023-03-22T06:27:41.082Z,96.15
2023-03-22T06:28:41.018Z,96.47
2023-03-22T06:29:40.980Z,96.73
2023-03-22T06:30:41.358Z,96.06
2023-03-22T06:31:41.154Z,96.17
2023-03-22T06:32:41.020Z,94.98
2023-03-22T06:33:40.968Z,94.98
2023-03-22T06:34:40.981Z,94.84
2023-03-22T06:35:41.036Z,94.71
2023-03-22T06:36:41.007Z,92.13
2023-03-22T06:37:40.954Z,91.92
2023-03-22T06:38:40.925Z,91.92
2023-03-22T06:39:40.938Z,90.43
2023-03-22T06:40:41.096Z,89.67
2023-03-22T06:41:40.896Z,90.31
2023-03-22T06:42:40.866Z,89.34
2023-03-22T06:43:40.880Z,87.51
2023-03-22T06:44:40.831Z,87.57
2023-03-22T06:45:40.901Z,86.35
2023-03-22T06:46:40.942Z,84.77
2023-03-22T06:47:40.957Z,83.81
2023-03-22T06:48:40.843Z,83.36
2023-03-22T06:49:40.924Z,83.42
2023-03-22T06:50:43.058Z,82.32
2023-03-22T06:51:41.779Z,81.77
2023-03-22T06:52:40.762Z,80.95
2023-03-22T06:53:40.790Z,80.54
2023-03-22T06:54:40.744Z,80.33
2023-03-22T06:55:40.729Z,80.62
2023-03-22T06:56:40.785Z,80.35
2023-03-22T06:57:40.766Z,81.71
2023-03-22T06:58:40.798Z,82.43
2023-03-22T06:59:40.790Z,82.68
2023-03-22T07:00:40.857Z,84.36
2023-03-22T07:01:40.708Z,84.09
2023-03-22T07:02:40.743Z,85.33
2023-03-22T07:03:40.677Z,86.35
2023-03-22T07:04:40.661Z,86.25
2023-03-22T07:05:40.684Z,86.91
2023-03-22T07:07:13.504Z,86.19
2023-03-22T07:07:40.646Z,86.66
2023-03-22T07:08:41.757Z,87.42
2023-03-22T07:10:14.536Z,87.52
2023-03-22T07:10:55.141Z,87.42
2023-03-22T07:11:40.576Z,88.20
2023-03-22T07:17:48.429Z,88.62
2023-03-22T07:18:31.393Z,89.44
2023-03-22T07:19:47.065Z,88.92
2023-03-22T07:20:31.341Z,88.76
2023-03-22T07:21:31.337Z,89.48
2023-03-22T07:22:31.327Z,89.95
2023-03-22T07:23:31.941Z,90.36
2023-03-22T07:24:31.313Z,91.29
2023-03-22T07:25:31.301Z,91.19
2023-03-22T07:26:42.032Z,91.08
2023-03-22T07:27:31.276Z,90.78
2023-03-22T07:28:31.268Z,91.19
2023-03-22T07:30:10.522Z,91.66
2023-03-22T07:30:31.241Z,91.61
2023-03-22T07:31:31.235Z,91.67
2023-03-22T07:37:01.838Z,90.67
2023-03-22T07:38:01.834Z,90.56
2023-03-22T07:39:02.341Z,89.50
2023-03-22T07:40:01.940Z,90.73
2023-03-22T07:44:38.844Z,90.64
2023-03-22T07:44:54.122Z,90.64
2023-03-22T07:45:54.049Z,90.64
2023-03-22T07:46:56.128Z,89.89
2023-03-22T07:47:54.093Z,90.25
2023-03-22T07:48:54.042Z,88.71
2023-03-22T07:49:54.043Z,88.51
2023-03-22T07:50:53.993Z,88.17
2023-03-22T07:51:53.968Z,87.35
2023-03-22T07:52:53.991Z,88.78
2023-03-22T07:53:53.975Z,88.43
2023-03-22T07:54:53.985Z,88.33
2023-03-22T07:55:53.954Z,87.30
2023-03-22T07:56:53.951Z,87.26
2023-03-22T07:57:53.960Z,88.49
2023-03-22T07:58:53.957Z,88.85
2023-03-22T07:59:53.900Z,87.49
2023-03-22T08:00:53.884Z,85.04
2023-03-22T08:01:53.928Z,84.22
2023-03-22T08:02:53.901Z,85.82
2023-03-22T08:03:53.836Z,84.39
2023-03-22T08:04:56.239Z,83.12
2023-03-22T08:05:53.849Z,84.45
2023-03-22T08:06:53.814Z,84.11
2023-03-22T08:07:53.853Z,82.92
2023-03-22T08:08:53.812Z,83.53
2023-03-22T08:09:53.974Z,84.41
2023-03-22T08:10:55.092Z,82.61
2023-03-22T08:11:53.846Z,80.88
2023-03-22T08:12:53.789Z,80.78
2023-03-22T08:13:54.057Z,81.18
2023-03-22T08:14:53.802Z,81.76
2023-03-22T08:15:53.852Z,80.84
2023-03-22T08:16:53.716Z,80.84
2023-03-22T08:17:53.730Z,80.74
2023-03-22T08:18:53.741Z,81.39
2023-03-22T08:19:53.679Z,80.78
2023-03-22T08:20:53.690Z,81.70
2023-03-22T08:21:53.647Z,81.80
2023-03-22T08:22:53.696Z,81.49
2023-03-22T08:23:53.699Z,82.71
2023-03-22T08:24:53.708Z,80.88
2023-03-22T08:25:53.688Z,81.84
2023-03-22T08:26:53.665Z,82.86
2023-03-22T08:27:53.593Z,82.59
2023-03-22T08:28:53.596Z,82.35
2023-03-22T08:29:53.587Z,81.84
2023-03-22T08:30:53.588Z,83.57
2023-03-22T08:31:53.574Z,82.28
2023-03-22T08:32:53.551Z,82.04
2023-03-22T08:33:53.522Z,82.45
2023-03-22T08:34:53.848Z,82.31
2023-03-22T08:35:53.525Z,81.29
2023-03-22T08:36:53.485Z,82.78
2023-03-22T08:37:53.514Z,82.88
2023-03-22T08:38:53.465Z,81.68
2023-03-22T08:39:53.453Z,80.56
2023-03-22T08:40:53.466Z,80.77
2023-03-22T08:41:53.493Z,78.12
2023-03-22T08:42:53.431Z,79.54
2023-03-22T08:43:53.431Z,80.32
2023-03-22T08:44:53.529Z,80.56
2023-03-22T08:45:53.432Z,79.71
2023-03-22T08:46:53.385Z,79.91
2023-03-22T08:47:53.413Z,81.04
2023-03-22T08:48:53.370Z,80.38
2023-03-22T08:49:53.363Z,78.52
2023-03-22T08:50:53.354Z,77.81
2023-03-22T08:51:53.326Z,76.86
2023-03-22T08:52:53.326Z,77.87
2023-03-22T08:53:53.305Z,79.34
2023-03-22T08:54:53.300Z,79.85
2023-03-22T08:55:53.309Z,78.28
2023-03-22T08:56:53.279Z,79.20
2023-03-22T08:57:53.330Z,77.87
2023-03-22T08:58:53.282Z,80.22
2023-03-22T08:59:53.253Z,80.11
2023-03-22T09:00:53.421Z,77.47
2023-03-22T09:01:53.313Z,79.10
2023-03-22T09:02:53.821Z,78.02
2023-03-22T09:03:53.209Z,78.02
2023-03-22T09:04:53.308Z,78.02
2023-03-22T09:05:53.190Z,78.53
2023-03-22T09:06:53.178Z,77.47
2023-03-22T09:07:53.154Z,78.53
2023-03-22T09:08:53.146Z,79.20
2023-03-22T09:09:53.131Z,79.30
2023-03-22T09:10:53.132Z,77.67
2023-03-22T09:11:53.156Z,77.98
2023-03-22T09:12:53.107Z,77.37
2023-03-22T09:13:53.086Z,77.78
2023-03-22T09:14:54.442Z,77.17
2023-03-22T09:15:53.156Z,77.06
2023-03-22T09:16:53.072Z,78.69
2023-03-22T09:17:53.122Z,79.00
2023-03-22T09:18:59.892Z,77.03
2023-03-22T09:20:05.779Z,79.41
2023-03-22T09:21:17.853Z,77.78
2023-03-22T09:21:53.027Z,76.56
2023-03-22T09:22:53.012Z,75.54
2023-03-22T09:23:52.993Z,77.57
2023-03-22T09:24:52.981Z,76.96
2023-03-22T09:25:52.970Z,76.45
2023-03-22T09:26:52.955Z,76.45
2023-03-22T09:27:52.939Z,77.78
2023-03-22T09:28:52.948Z,76.69
2023-03-22T09:29:52.952Z,75.02
2023-03-22T09:30:52.952Z,75.95
2023-03-22T09:31:52.897Z,76.25
2023-03-22T09:32:52.895Z,76.52
2023-03-22T09:33:52.877Z,75.57
2023-03-22T09:34:52.885Z,73.84
2023-03-22T09:35:52.912Z,75.57
2023-03-22T09:36:52.907Z,74.96
2023-03-22T09:37:52.851Z,75.53
2023-03-22T09:38:52.831Z,73.91
2023-03-22T09:39:52.816Z,74.72
2023-03-22T09:40:52.819Z,74.68
2023-03-22T09:41:52.807Z,74.68
2023-03-22T09:42:54.004Z,74.28
2023-03-22T09:43:52.784Z,73.26
2023-03-22T09:44:52.802Z,73.97
2023-03-22T09:45:52.825Z,71.33
2023-03-22T09:46:52.793Z,71.67
2023-03-22T09:47:52.845Z,73.57
2023-03-22T09:48:52.753Z,74.34
2023-03-22T09:49:54.158Z,72.25
2023-03-22T09:50:52.712Z,71.53
2023-03-22T09:51:52.752Z,70.14
2023-03-22T09:52:52.689Z,70.35
2023-03-22T09:53:52.684Z,70.68
2023-03-22T09:54:53.323Z,72.52
2023-03-22T09:55:52.655Z,72.01
2023-03-22T09:56:52.655Z,72.01
2023-03-22T09:57:52.631Z,71.19
2023-03-22T09:58:52.763Z,72.41
2023-03-22T09:59:52.611Z,74.04
2023-03-22T10:00:52.735Z,72.52
2023-03-22T10:01:52.899Z,71.70
2023-03-22T10:02:52.684Z,70.45
2023-03-22T10:03:52.674Z,69.53
2023-03-22T10:04:52.579Z,70.55
2023-03-22T10:05:52.584Z,70.92
2023-03-22T10:06:52.560Z,69.70
2023-03-22T10:07:52.535Z,69.60
2023-03-22T10:08:52.612Z,69.78
2023-03-22T10:09:52.512Z,68.55
2023-03-22T10:10:52.508Z,68.76
2023-03-22T10:11:52.502Z,67.94
2023-03-22T10:12:52.497Z,68.86
2023-03-22T10:13:52.471Z,68.05
2023-03-22T10:14:52.467Z,68.66
2023-03-22T10:15:52.557Z,69.17
2023-03-22T10:16:54.142Z,68.05
2023-03-22T10:17:52.438Z,65.61
2023-03-22T10:18:52.434Z,66.55
2023-03-22T10:19:52.427Z,67.57
2023-03-22T10:20:52.409Z,67.77
2023-03-22T10:21:52.428Z,67.77
2023-03-22T10:22:53.389Z,67.24
2023-03-22T10:23:52.374Z,70.01
2023-03-22T10:24:52.362Z,70.42
2023-03-22T10:25:52.356Z,65.77
2023-03-22T10:26:52.354Z,64.92
2023-03-22T10:27:52.344Z,64.64
2023-03-22T10:28:52.331Z,65.72
2023-03-22T10:29:52.402Z,66.74
2023-03-22T10:30:52.306Z,66.66
2023-03-22T10:31:52.416Z,68.12
2023-03-22T10:32:57.810Z,66.16
2023-03-22T10:33:53.298Z,65.34
2023-03-22T10:34:52.265Z,67.00
2023-03-22T10:35:52.336Z,65.18
2023-03-22T10:36:52.253Z,63.93
2023-03-22T10:37:52.255Z,63.93
2023-03-22T10:38:52.224Z,64.75
2023-03-22T10:39:52.213Z,63.53
2023-03-22T10:40:52.204Z,65.79
2023-03-22T10:41:52.204Z,63.76
2023-03-22T10:42:52.260Z,65.69
2023-03-22T10:43:52.181Z,65.69
2023-03-22T10:44:52.155Z,64.91
2023-03-22T10:45:52.142Z,64.73
2023-03-22T10:46:52.273Z,65.48
2023-03-22T10:47:52.173Z,66.19
2023-03-22T10:48:52.118Z,67.50
2023-03-22T10:49:52.109Z,68.01
2023-03-22T10:50:52.096Z,67.20
2023-03-22T10:51:52.096Z,67.50
2023-03-22T10:52:52.078Z,67.91
2023-03-22T10:53:52.063Z,69.30
2023-03-22T10:54:52.052Z,65.99
2023-03-22T10:55:52.058Z,64.01
2023-03-22T10:56:52.041Z,65.50
2023-03-22T10:57:52.023Z,62.96
2023-03-22T10:58:52.080Z,62.96
2023-03-22T10:59:52.031Z,63.17
2023-03-22T11:00:52.129Z,61.85
2023-03-22T11:01:52.259Z,61.47
2023-03-22T11:02:52.050Z,63.02
2023-03-22T11:03:51.962Z,65.73
2023-03-22T11:04:51.962Z,63.37
2023-03-22T11:05:51.942Z,63.34
2023-03-22T11:06:54.621Z,64.02
2023-03-22T11:07:51.923Z,63.41
2023-03-22T11:08:51.910Z,64.12
2023-03-22T11:09:51.898Z,62.30
2023-03-22T11:10:51.971Z,60.78
2023-03-22T11:11:51.894Z,63.13
2023-03-22T11:12:51.864Z,62.43
2023-03-22T11:13:51.860Z,61.52
2023-03-22T11:14:51.845Z,63.23
2023-03-22T11:15:51.839Z,63.73
2023-03-22T11:16:51.950Z,62.01
2023-03-22T11:17:51.829Z,63.56
2023-03-22T11:18:51.809Z,64.31
2023-03-22T11:19:51.868Z,63.56
2023-03-22T11:20:51.856Z,63.76
2023-03-22T11:21:51.777Z,63.15
2023-03-22T11:22:51.775Z,63.56
2023-03-22T11:23:51.769Z,64.88
2023-03-22T11:24:51.748Z,65.05
2023-03-22T11:25:51.739Z,63.30
2023-03-22T11:26:51.719Z,64.01
2023-03-22T11:27:51.722Z,63.53
2023-03-22T11:28:51.703Z,63.23
2023-03-22T11:29:51.698Z,63.02
2023-03-22T11:30:51.717Z,64.75
2023-03-22T11:31:54.212Z,64.44
2023-03-22T11:32:51.813Z,67.45
2023-03-22T11:33:51.652Z,62.89
2023-03-22T11:34:51.636Z,62.38
2023-03-22T11:35:51.697Z,62.79
2023-03-22T11:36:51.617Z,63.78
2023-03-22T11:38:08.195Z,62.72
2023-03-22T11:38:52.427Z,63.81
2023-03-22T11:39:51.596Z,62.73
2023-03-22T11:40:56.104Z,62.19
2023-03-22T11:41:52.432Z,63.55
2023-03-22T11:43:18.599Z,60.62
2023-03-22T11:43:52.780Z,59.36
2023-03-22T11:44:52.520Z,60.50
2023-03-22T11:45:56.004Z,60.97
2023-03-22T11:46:51.520Z,61.53
2023-03-22T11:47:51.595Z,63.76
2023-03-22T11:48:51.602Z,63.12
2023-03-22T11:49:51.498Z,62.72
2023-03-22T11:50:51.541Z,62.62
2023-03-22T11:51:51.465Z,61.37
2023-03-22T11:52:51.479Z,61.98
2023-03-22T11:53:51.461Z,61.47
2023-03-22T11:54:51.458Z,63.20
2023-03-22T11:55:51.423Z,63.27
2023-03-22T11:56:51.430Z,63.37
2023-03-22T11:57:51.434Z,62.56
2023-03-22T11:58:51.446Z,61.65
2023-03-22T11:59:51.397Z,62.56
2023-03-22T12:00:51.428Z,62.89
2023-03-22T12:01:51.419Z,63.70
2023-03-22T12:02:51.412Z,63.40
2023-03-22T12:03:51.712Z,65.22
2023-03-22T12:04:51.408Z,62.15
2023-03-22T12:05:51.400Z,62.89
2023-03-22T12:06:51.318Z,62.96
2023-03-22T12:07:51.320Z,62.96
2023-03-22T12:08:51.306Z,63.17
2023-03-22T12:09:52.491Z,63.01
2023-03-22T12:10:52.474Z,62.57
2023-03-22T12:11:52.446Z,60.45
2023-03-22T12:12:52.420Z,59.91
2023-03-22T12:13:52.425Z,62.44
2023-03-22T12:14:52.600Z,60.35
2023-03-22T12:15:52.445Z,60.22
2023-03-22T12:16:52.364Z,61.10
2023-03-22T12:17:52.377Z,60.69
2023-03-22T12:18:52.383Z,59.41
2023-03-22T12:19:52.370Z,59.51
2023-03-22T12:20:52.362Z,60.72
2023-03-22T12:21:52.334Z,61.68
2023-03-22T12:22:52.366Z,59.93
2023-03-22T12:23:52.344Z,57.08
2023-03-22T12:24:52.430Z,57.34
2023-03-22T12:25:52.340Z,57.87
2023-03-22T12:26:52.327Z,59.61
2023-03-22T12:27:52.374Z,58.73
2023-03-22T12:28:52.301Z,59.31
2023-03-22T12:29:52.286Z,58.87
2023-03-22T12:30:52.297Z,58.07
2023-03-22T12:31:53.237Z,59.38
2023-03-22T12:32:52.283Z,58.40
2023-03-22T12:33:52.239Z,59.31
2023-03-22T12:34:55.054Z,59.81
2023-03-22T12:35:54.265Z,60.38
2023-03-22T12:36:52.228Z,60.48
2023-03-22T12:37:52.205Z,60.98
2023-03-22T12:38:52.206Z,60.68
2023-03-22T12:39:52.194Z,61.19
2023-03-22T12:40:52.151Z,61.87
2023-03-22T12:41:52.180Z,59.03
2023-03-22T12:42:54.544Z,59.23
2023-03-22T12:43:54.160Z,60.17
2023-03-22T12:45:02.534Z,60.35
2023-03-22T12:45:54.241Z,60.82
2023-03-22T12:46:52.308Z,60.22
2023-03-22T12:47:52.233Z,59.21
2023-03-22T12:48:52.349Z,60.52
2023-03-22T12:49:52.214Z,61.03
2023-03-22T12:50:52.176Z,60.09
2023-03-22T12:51:52.206Z,57.97
2023-03-22T12:52:52.175Z,57.46
2023-03-22T12:53:52.187Z,56.96
2023-03-22T13:06:59.644Z,61.14
2023-03-22T13:07:59.201Z,61.35
2023-03-22T13:08:59.745Z,62.76
2023-03-22T13:10:15.155Z,62.05
2023-03-22T13:11:05.658Z,63.17
2023-03-22T13:11:59.012Z,62.23
2023-03-22T13:12:58.952Z,61.14
2023-03-22T13:13:59.026Z,61.24
2023-03-22T13:14:59.024Z,62.26
2023-03-22T13:15:58.997Z,62.05
2023-03-22T13:16:59.124Z,62.33
2023-03-22T13:17:59.073Z,62.53